Detalii statie AGRIND TASNAD [0000197A]

Toti senzorii

Date Temperatura solului [C]Precipitatii [mm]Voltaj baterie [mV]Leaf Wetness [Min]HC Air temperature [C]HC Relative humidity [%]Punctul de roua [C]
medieminmaxsumaultimatimpmedieminmaxmediemediemin
2018-06-20 10:00:00 22.2 22.2 22.3 0 7108 27.52 27.28 27.77 69.72 21.2 21.2
2018-06-20 10:10:00 22.2 22.1 22.4 0 7108 27.54 27.26 27.83 68.29 21 20.9
2018-06-20 10:20:00 22.5 22.4 22.6 0 7148 26.94 26.59 27.29 68.25 20.3 20.1
2018-06-20 10:30:00 22.5 22.4 22.7 0 7186 27.34 27.31 27.38 67.96 20.7 20.6
2018-06-20 10:40:00 22.6 22.6 22.6 0 7216 27.8 27.42 28.18 64.8 20.3 20.1
2018-06-20 10:50:00 22.8 22.8 22.8 0 7254 28.48 27.87 29.1 64.25 20.9 20.6
2018-06-20 11:00:00 22.8 22.8 22.8 0 7254 28.25 28.18 28.33 61.82 20 19.9
2018-06-20 11:10:00 23 23 23 0 7264 28.23 27.8 28.66 60.46 19.7 19.3
2018-06-20 11:20:00 23 23 23.1 0 7264 29.15 29.13 29.18 58.92 20.1 19.7
2018-06-20 11:30:00 23.2 23.1 23.3 0 7264 29.15 28.85 29.45 57.96 19.8 19.7
2018-06-20 11:40:00 23.3 23.2 23.4 0 7264 29.66 29.63 29.7 58.66 20.6 20.3
2018-06-20 11:50:00 23.4 23.4 23.5 0 7264 29.61 29.38 29.84 58 20.3 20.1
2018-06-20 12:00:00 23.7 23.7 23.7 0 7264 29.82 29.72 29.93 53.72 19.3 19
2018-06-20 12:10:00 23.7 23.6 23.8 0 7264 30.16 29.56 30.77 50.27 18.4 18
2018-06-20 12:20:00 23.7 23.7 23.8 0 7264 30.3 29.66 30.94 48.37 18 17.8
2018-06-20 12:30:00 24 24 24.1 0 7264 30 29.92 30.08 49.96 18.2 18
2018-06-20 12:40:00 24.1 24.1 24.2 0 7264 30 29.94 30.07 48.26 17.6 17.5
2018-06-20 12:50:00 24.2 24.2 24.3 0 7264 30.07 29.59 30.55 45.48 16.6 16
2018-06-20 13:00:00 24.3 24.3 24.3 0 7264 30.57 30.12 31.02 44.18 16.7 16.6
2018-06-20 13:10:00 24.4 24.4 24.5 0 7264 30.6 30.54 30.67 48.74 18.3 17.9
2018-06-20 13:20:00 24.5 24.5 24.6 0 7264 30.48 30.44 30.52 46.91 17.7 17.6
2018-06-20 13:30:00 24.7 24.7 24.7 0 7264 30.74 30.49 31 46.69 17.9 16.8
2018-06-20 13:40:00 24.7 24.7 24.8 0 7264 30.8 30.7 30.91 45.05 17.4 17.2
2018-06-20 13:50:00 24.9 24.8 25 0 7264 30.39 29.96 30.83 44.61 16.7 16.3
2018-06-20 14:00:00 25 25 25.1 0 7264 30.8 30.66 30.95 45.64 17.4 16.6
2018-06-20 14:10:00 25 24.9 25.2 0 7264 30.43 30.25 30.62 45.15 16.9 16.6
2018-06-20 14:20:00 25.1 25.1 25.2 0 7264 30.57 30.57 30.58 43.35 16.5 16.5
2018-06-20 14:30:00 25.3 25.3 25.4 0 7264 30.73 30.55 30.92 45.9 17.5 17.2
2018-06-20 14:40:00 25.4 25.4 25.4 0 7216 30.61 30.23 30.99 43.57 16.5 16.5
2018-06-20 14:50:00 25.5 25.5 25.5 0 7264 30.66 30.66 30.67 46.1 17.5 17.3
2018-06-20 15:00:00 25.5 25.4 25.6 0 7264 30.51 30.51 30.51 44.53 16.9 16.9
2018-06-20 15:10:00 25.7 25.7 25.8 0 7264 31.26 30.92 31.61 44.15 17.5 17.5
2018-06-20 15:20:00 25.7 25.6 25.8 0 7264 31.22 31.14 31.31 42.87 16.9 15.9
2018-06-20 15:30:00 25.7 25.6 25.8 0 7264 31.72 31.64 31.81 43.91 17.7 17.5
2018-06-20 15:40:00 25.9 25.9 25.9 0 7264 30.85 30.68 31.03 42.7 16.6 16.6
2018-06-20 15:50:00 25.9 25.9 26 0 7264 31.3 31.23 31.37 42.58 16.8 16.5
2018-06-20 16:00:00 25.9 25.9 25.9 0 7264 31.88 31.71 32.06 40.64 16.5 16.4
2018-06-20 16:10:00 25.9 25.9 25.9 0 7264 31.69 31.25 32.14 42.19 17.2 16.8
2018-06-20 16:20:00 26 26 26 0 7254 30.89 30.81 30.98 44 17 16.8
2018-06-20 16:30:00 26.1 26 26.3 0 7264 31.38 31.37 31.4 44.64 17.6 17.3
2018-06-20 16:40:00 25.9 25.8 26 0 7264 30.9 30.46 31.35 44.24 17.1 16
2018-06-20 16:50:00 26 26 26 0 7264 30.95 30.71 31.19 42.69 16.5 16.3
2018-06-20 17:00:00 25.9 25.9 26 0 7264 31.28 31.16 31.41 43.77 17.2 16.7
2018-06-20 17:10:00 26.2 26.1 26.4 0 7264 31.18 30.94 31.43 44.51 17.4 17.3
2018-06-20 17:20:00 26.1 26.1 26.2 0 7264 31.26 31.11 31.41 42.94 16.8 16.7
2018-06-20 17:30:00 26.1 26.1 26.2 0 7264 31.21 31.13 31.3 43.82 17.1 17
2018-06-20 17:40:00 26.1 26.1 26.2 0 7254 30.72 30.54 30.9 46.8 17.7 17.6
2018-06-20 17:50:00 26.2 26.2 26.2 0 7264 30.59 30.5 30.69 44.85 17.1 17